createdAt,value
2022-10-11T00:00:43.270Z,7.97
2022-10-11T00:03:09.920Z,7.93
2022-10-11T00:05:36.628Z,8.03
2022-10-11T00:08:05.595Z,6.77
2022-10-11T00:10:35.158Z,6.70
2022-10-11T00:13:01.649Z,7.50
2022-10-11T00:15:28.237Z,7.77
2022-10-11T00:17:54.738Z,6.00
2022-10-11T00:20:21.287Z,7.40
2022-10-11T00:22:49.383Z,7.37
2022-10-11T00:25:16.551Z,8.20
2022-10-11T00:27:43.047Z,6.60
2022-10-11T00:30:10.456Z,7.17
2022-10-11T00:32:38.459Z,7.63
2022-10-11T00:35:06.776Z,6.40
2022-10-11T00:37:38.038Z,7.87
2022-10-11T00:40:07.396Z,6.70
2022-10-11T00:42:33.932Z,6.97
2022-10-11T00:45:31.374Z,5.97
2022-10-11T00:48:05.337Z,5.50
2022-10-11T00:50:34.178Z,6.27
2022-10-11T00:53:04.013Z,5.90
2022-10-11T00:55:35.351Z,6.80
2022-10-11T00:58:01.823Z,7.47
2022-10-11T01:00:28.311Z,8.73
2022-10-11T01:02:55.139Z,7.53
2022-10-11T01:05:30.355Z,8.60
2022-10-11T01:08:01.047Z,7.67
2022-10-11T01:10:27.883Z,7.37
2022-10-11T01:13:30.428Z,6.30
2022-10-11T01:16:09.444Z,6.73
2022-10-11T01:19:31.926Z,7.60
2022-10-11T01:22:35.926Z,6.10
2022-10-11T01:25:19.202Z,7.20
2022-10-11T01:28:15.526Z,6.70
2022-10-11T01:30:42.204Z,7.70
2022-10-11T01:33:23.440Z,6.60
2022-10-11T01:35:49.903Z,5.83
2022-10-11T01:38:33.330Z,7.83
2022-10-11T01:41:04.567Z,6.80
2022-10-11T01:43:32.015Z,6.07
2022-10-11T01:46:00.158Z,5.20
2022-10-11T01:48:26.786Z,5.20
2022-10-11T01:50:56.191Z,6.00
2022-10-11T01:53:50.337Z,6.27
2022-10-11T01:56:43.802Z,7.30
2022-10-11T01:59:28.421Z,5.27
2022-10-11T02:02:08.117Z,5.67
2022-10-11T02:04:49.690Z,5.93
2022-10-11T02:07:25.234Z,6.00
2022-10-11T02:09:55.355Z,5.83
2022-10-11T02:12:46.589Z,5.50
2022-10-11T02:15:13.728Z,5.70
2022-10-11T02:17:44.671Z,5.30
2022-10-11T02:20:14.517Z,5.17
2022-10-11T02:22:43.758Z,5.67
2022-10-11T02:25:13.584Z,5.70
2022-10-11T02:27:41.178Z,6.30
2022-10-11T02:30:09.218Z,6.20
2022-10-11T02:32:38.729Z,6.43
2022-10-11T02:35:05.737Z,6.90
2022-10-11T02:37:50.573Z,10.50
2022-10-11T02:40:43.262Z,9.73
2022-10-11T02:43:18.013Z,6.73
2022-10-11T02:45:54.129Z,6.20
2022-10-11T02:48:21.220Z,6.60
2022-10-11T02:50:47.693Z,6.33
2022-10-11T02:53:14.226Z,6.40
2022-10-11T02:55:40.808Z,6.47
2022-10-11T02:58:07.354Z,4.97
2022-10-11T03:00:33.826Z,5.90
2022-10-11T03:03:00.311Z,6.53
2022-10-11T03:05:26.866Z,5.77
2022-10-11T03:07:53.321Z,5.43
2022-10-11T03:10:19.837Z,6.23
2022-10-11T03:12:46.401Z,7.23
2022-10-11T03:15:12.860Z,4.83
2022-10-11T03:17:39.380Z,5.70
2022-10-11T03:20:06.665Z,6.70
2022-10-11T03:22:33.130Z,5.07
2022-10-11T03:25:03.595Z,5.07
2022-10-11T03:27:30.832Z,5.40
2022-10-11T03:29:58.145Z,6.60
2022-10-11T03:32:24.952Z,5.60
2022-10-11T03:34:51.801Z,6.70
2022-10-11T03:37:18.458Z,7.30
2022-10-11T03:39:45.773Z,5.00
2022-10-11T03:42:12.840Z,4.77
2022-10-11T03:44:39.347Z,4.57
2022-10-11T03:47:06.092Z,6.47
2022-10-11T03:49:32.662Z,5.63
2022-10-11T03:52:00.037Z,5.57
2022-10-11T03:54:26.556Z,6.23
2022-10-11T03:56:53.208Z,5.57
2022-10-11T03:59:19.697Z,6.13
2022-10-11T04:01:46.192Z,6.03
2022-10-11T04:04:12.784Z,5.57
2022-10-11T04:06:39.340Z,6.20
2022-10-11T04:09:06.043Z,6.13
2022-10-11T04:11:32.771Z,5.80
2022-10-11T04:13:59.301Z,6.27
2022-10-11T04:16:25.904Z,5.90
2022-10-11T04:18:52.412Z,5.90
2022-10-11T04:21:18.901Z,6.50
2022-10-11T04:23:45.329Z,7.37
2022-10-11T04:26:11.867Z,4.80
2022-10-11T04:28:38.399Z,5.37
2022-10-11T04:31:06.611Z,5.10
2022-10-11T04:33:33.127Z,6.47
2022-10-11T04:36:00.032Z,6.67
2022-10-11T04:38:26.488Z,7.57
2022-10-11T04:40:52.985Z,6.97
2022-10-11T04:43:19.491Z,6.40
2022-10-11T04:45:46.250Z,6.60
2022-10-11T04:48:14.167Z,4.97
2022-10-11T04:50:40.656Z,5.73
2022-10-11T04:53:07.408Z,6.27
2022-10-11T04:55:33.858Z,5.90
2022-10-11T04:58:00.954Z,6.60
2022-10-11T05:00:27.490Z,7.30
2022-10-11T05:02:54.484Z,6.33
2022-10-11T05:05:21.082Z,6.87
2022-10-11T05:07:47.521Z,7.57
2022-10-11T05:10:14.583Z,5.93
2022-10-11T05:12:41.099Z,7.93
2022-10-11T05:15:08.285Z,6.97
2022-10-11T05:17:34.976Z,6.93
2022-10-11T05:20:01.490Z,6.90
2022-10-11T05:22:27.972Z,6.30
2022-10-11T05:24:54.415Z,6.57
2022-10-11T05:27:20.904Z,6.67
2022-10-11T05:29:47.397Z,8.23
2022-10-11T05:32:13.961Z,6.77
2022-10-11T05:34:40.448Z,6.47
2022-10-11T05:37:06.967Z,6.97
2022-10-11T05:39:33.649Z,6.80
2022-10-11T05:42:00.190Z,6.90
2022-10-11T05:44:26.752Z,6.23
2022-10-11T05:46:53.632Z,6.10
2022-10-11T05:49:20.067Z,6.97
2022-10-11T05:51:46.918Z,7.20
2022-10-11T05:54:13.344Z,6.97
2022-10-11T05:56:39.851Z,7.70
2022-10-11T05:59:06.330Z,7.50
2022-10-11T06:01:33.119Z,7.77
2022-10-11T06:03:59.650Z,6.83
2022-10-11T06:06:26.131Z,7.97
2022-10-11T06:08:52.582Z,7.90
2022-10-11T06:11:25.397Z,7.43
2022-10-11T06:13:56.468Z,9.43
2022-10-11T06:16:23.107Z,8.73
2022-10-11T06:18:53.010Z,6.80
2022-10-11T06:21:19.539Z,6.97
2022-10-11T06:23:49.786Z,7.93
2022-10-11T06:26:16.285Z,7.27
2022-10-11T06:28:43.377Z,6.90
2022-10-11T06:31:10.432Z,6.90
2022-10-11T06:33:37.509Z,6.37
2022-10-11T06:36:07.584Z,7.00
2022-10-11T06:38:34.710Z,6.43
2022-10-11T06:41:17.615Z,6.90
2022-10-11T06:43:44.861Z,7.70
2022-10-11T06:46:11.998Z,8.30
2022-10-11T06:48:43.457Z,11.70
2022-10-11T06:51:11.463Z,11.27
2022-10-11T06:53:38.734Z,8.23
2022-10-11T06:56:07.830Z,7.90
2022-10-11T06:58:35.102Z,8.37
2022-10-11T07:01:02.627Z,6.20
2022-10-11T07:03:29.718Z,6.90
2022-10-11T07:06:07.011Z,7.33
2022-10-11T07:08:33.972Z,7.00
2022-10-11T07:11:08.384Z,8.10
2022-10-11T07:13:35.762Z,7.17
2022-10-11T07:16:07.798Z,8.10
2022-10-11T07:18:35.243Z,7.30
2022-10-11T07:21:11.551Z,7.30
2022-10-11T07:23:38.501Z,7.07
2022-10-11T07:26:07.553Z,8.40
2022-10-11T07:28:35.801Z,7.63
2022-10-11T07:31:28.552Z,7.20
2022-10-11T07:33:55.199Z,7.70
2022-10-11T07:36:23.413Z,10.60
2022-10-11T07:38:50.410Z,7.20
2022-10-11T07:41:17.244Z,7.20
2022-10-11T07:43:44.099Z,6.97
2022-10-11T07:46:11.235Z,6.30
2022-10-11T07:48:38.253Z,5.80
2022-10-11T07:51:06.690Z,5.67
2022-10-11T07:53:38.873Z,12.53
2022-10-11T07:56:06.112Z,8.63
2022-10-11T07:58:32.875Z,7.40
2022-10-11T08:00:59.444Z,5.73
2022-10-11T08:03:25.941Z,6.77
2022-10-11T08:05:52.654Z,6.83
2022-10-11T08:08:19.456Z,6.40
2022-10-11T08:10:45.937Z,7.63
2022-10-11T08:13:12.560Z,7.83
2022-10-11T08:15:39.067Z,6.30
2022-10-11T08:18:39.974Z,7.70
2022-10-11T08:21:11.020Z,9.43
2022-10-11T08:23:37.760Z,6.43
2022-10-11T08:26:04.835Z,6.87
2022-10-11T08:28:31.588Z,6.60
2022-10-11T08:30:58.192Z,5.03
2022-10-11T08:33:26.163Z,4.70
2022-10-11T08:35:53.692Z,5.00
2022-10-11T08:38:20.443Z,6.77
2022-10-11T08:40:48.712Z,5.50
2022-10-11T08:43:31.343Z,6.53
2022-10-11T08:46:00.275Z,5.73
2022-10-11T08:48:36.057Z,5.80
2022-10-11T08:51:09.045Z,7.07
2022-10-11T08:53:58.049Z,6.37
2022-10-11T08:56:25.824Z,6.20
2022-10-11T08:59:05.349Z,6.03
2022-10-11T09:01:32.190Z,5.30
2022-10-11T09:04:02.831Z,5.27
2022-10-11T09:06:50.575Z,6.67
2022-10-11T09:09:29.684Z,4.90
2022-10-11T09:12:00.147Z,4.60
2022-10-11T09:14:47.957Z,4.70
2022-10-11T09:17:35.911Z,4.87
2022-10-11T09:20:31.426Z,5.20
2022-10-11T09:23:34.010Z,4.90
2022-10-11T09:26:07.596Z,5.17
2022-10-11T09:28:51.022Z,5.90
2022-10-11T09:31:18.030Z,6.23
2022-10-11T09:33:47.461Z,4.97
2022-10-11T09:36:26.065Z,4.33
2022-10-11T09:39:18.078Z,7.07
2022-10-11T09:41:59.171Z,4.87
2022-10-11T09:44:33.236Z,4.37
2022-10-11T09:47:00.010Z,4.30
2022-10-11T09:49:33.767Z,4.43
2022-10-11T09:52:02.451Z,4.27
2022-10-11T09:54:43.423Z,4.83
2022-10-11T09:57:34.296Z,4.40
2022-10-11T10:00:20.715Z,7.20
2022-10-11T10:02:56.341Z,5.67
2022-10-11T10:05:41.849Z,6.80
2022-10-11T10:08:11.477Z,5.23
2022-10-11T10:10:43.721Z,4.90
2022-10-11T10:13:21.031Z,5.00
2022-10-11T10:15:50.940Z,4.47
2022-10-11T10:18:22.321Z,5.37
2022-10-11T10:20:53.613Z,5.63
2022-10-11T10:23:26.079Z,4.60
2022-10-11T10:25:54.573Z,4.90
2022-10-11T10:28:25.517Z,4.93
2022-10-11T10:30:57.410Z,3.70
2022-10-11T10:33:26.456Z,4.20
2022-10-11T10:36:16.044Z,4.73
2022-10-11T10:38:51.967Z,4.77
2022-10-11T10:41:19.013Z,4.73
2022-10-11T10:43:55.977Z,5.17
2022-10-11T10:46:49.040Z,4.83
2022-10-11T10:50:20.593Z,4.80
2022-10-11T10:52:54.997Z,4.03
2022-10-11T10:55:45.274Z,3.60
2022-10-11T10:58:45.705Z,4.37
2022-10-11T11:01:28.241Z,4.57
2022-10-11T11:04:05.296Z,4.10
2022-10-11T11:06:50.159Z,4.60
2022-10-11T11:09:29.469Z,3.73
2022-10-11T11:12:07.453Z,3.40
2022-10-11T11:14:44.047Z,4.37
2022-10-11T11:17:28.265Z,3.27
2022-10-11T11:20:03.754Z,4.57
2022-10-11T11:22:42.821Z,4.80
2022-10-11T11:25:26.361Z,5.73
2022-10-11T11:28:18.825Z,5.77
2022-10-11T11:31:03.592Z,4.80
2022-10-11T11:33:39.136Z,4.53
2022-10-11T11:36:11.903Z,4.90
2022-10-11T11:38:54.031Z,3.97
2022-10-11T11:41:24.528Z,4.93
2022-10-11T11:44:27.455Z,4.90
2022-10-11T11:46:57.299Z,4.30
2022-10-11T11:49:34.891Z,4.50
2022-10-11T11:52:02.075Z,3.77
2022-10-11T11:54:44.664Z,4.10
2022-10-11T11:57:37.093Z,5.30
2022-10-11T12:00:18.226Z,4.50
2022-10-11T12:02:52.369Z,4.40
2022-10-11T12:05:29.000Z,4.90
2022-10-11T12:08:07.194Z,3.73
2022-10-11T12:10:39.565Z,4.10
2022-10-11T12:13:19.648Z,3.93
2022-10-11T12:16:10.621Z,3.90
2022-10-11T12:19:12.154Z,4.47
2022-10-11T12:21:40.287Z,4.20
2022-10-11T12:24:19.239Z,5.20
2022-10-11T12:26:55.866Z,4.60
2022-10-11T12:29:43.026Z,3.93
2022-10-11T12:32:11.285Z,4.23
2022-10-11T12:34:42.538Z,4.03
2022-10-11T12:37:18.046Z,4.03
2022-10-11T12:40:00.261Z,4.77
2022-10-11T12:42:35.067Z,4.60
2022-10-11T12:45:13.947Z,4.47
2022-10-11T12:47:47.092Z,4.93
2022-10-11T12:50:38.317Z,5.00
2022-10-11T12:53:18.615Z,4.67
2022-10-11T12:55:45.018Z,4.43
2022-10-11T12:58:38.587Z,4.00
2022-10-11T13:01:11.761Z,5.53
2022-10-11T13:03:41.256Z,4.03
2022-10-11T13:06:25.597Z,4.27
2022-10-11T13:09:04.862Z,4.93
2022-10-11T13:11:35.231Z,4.30
2022-10-11T13:14:08.689Z,3.90
2022-10-11T13:16:50.661Z,5.20
2022-10-11T13:19:17.476Z,6.57
2022-10-11T13:22:12.782Z,4.07
2022-10-11T13:24:40.797Z,5.00
2022-10-11T13:27:07.594Z,5.23
2022-10-11T13:29:37.414Z,5.50
2022-10-11T13:32:07.504Z,5.77
2022-10-11T13:34:38.585Z,5.93
2022-10-11T13:37:05.637Z,6.43
2022-10-11T13:39:36.697Z,5.77
2022-10-11T13:42:07.165Z,6.33
2022-10-11T13:44:35.454Z,5.13
2022-10-11T13:47:11.693Z,5.07
2022-10-11T13:49:39.951Z,5.00
2022-10-11T13:52:20.200Z,5.93
2022-10-11T13:55:05.897Z,6.57
2022-10-11T13:57:47.813Z,6.13
2022-10-11T14:00:20.117Z,6.83
2022-10-11T14:02:50.938Z,7.30
2022-10-11T14:05:34.203Z,5.77
2022-10-11T14:08:03.978Z,5.67
2022-10-11T14:10:30.827Z,5.80
2022-10-11T14:13:06.297Z,6.27
2022-10-11T14:15:36.172Z,6.23
2022-10-11T14:18:45.821Z,5.40
2022-10-11T14:21:30.638Z,6.33
2022-10-11T14:23:58.712Z,8.10
2022-10-11T14:26:27.048Z,7.63
2022-10-11T14:29:00.345Z,5.83
2022-10-11T14:31:27.011Z,6.60
2022-10-11T14:33:54.560Z,7.33
2022-10-11T14:36:22.886Z,5.80
2022-10-11T14:38:52.721Z,5.70
2022-10-11T14:41:19.423Z,5.83
2022-10-11T14:43:45.843Z,6.03
2022-10-11T14:46:22.519Z,5.27
2022-10-11T14:48:56.922Z,5.30
2022-10-11T14:51:26.374Z,5.43
2022-10-11T14:53:52.896Z,5.50
2022-10-11T14:56:21.619Z,5.60
2022-10-11T14:58:48.398Z,5.43
2022-10-11T15:01:15.790Z,4.50
2022-10-11T15:03:42.789Z,5.97
2022-10-11T15:06:24.690Z,5.67
2022-10-11T15:08:51.528Z,4.63
2022-10-11T15:11:20.155Z,5.20
2022-10-11T15:13:47.274Z,5.27
2022-10-11T15:16:15.568Z,4.70
2022-10-11T15:18:42.504Z,5.10
2022-10-11T15:21:13.732Z,5.30
2022-10-11T15:23:40.184Z,5.40
2022-10-11T15:26:07.030Z,5.93
2022-10-11T15:28:33.838Z,6.90
2022-10-11T15:31:00.751Z,7.53
2022-10-11T15:33:27.246Z,6.37
2022-10-11T15:35:53.834Z,5.90
2022-10-11T15:38:22.947Z,4.60
2022-10-11T15:40:50.267Z,4.70
2022-10-11T15:43:20.784Z,4.50
2022-10-11T15:45:50.345Z,4.50
2022-10-11T15:48:19.695Z,4.80
2022-10-11T15:50:46.429Z,5.03
2022-10-11T15:53:19.357Z,5.17
2022-10-11T15:55:49.587Z,4.87
2022-10-11T15:58:19.295Z,4.33
2022-10-11T16:00:47.654Z,4.80
2022-10-11T16:03:15.539Z,5.63
2022-10-11T16:05:42.545Z,5.33
2022-10-11T16:08:10.325Z,4.00
2022-10-11T16:10:37.195Z,4.63
2022-10-11T16:13:03.745Z,7.53
2022-10-11T16:15:30.538Z,7.43
2022-10-11T16:17:57.111Z,5.60
2022-10-11T16:20:25.633Z,4.60
2022-10-11T16:22:54.203Z,6.10
2022-10-11T16:25:21.315Z,5.47
2022-10-11T16:27:48.251Z,5.60
2022-10-11T16:30:16.052Z,5.67
2022-10-11T16:32:42.560Z,9.13
2022-10-11T16:35:10.476Z,5.70
2022-10-11T16:37:36.950Z,4.20
2022-10-11T16:40:05.100Z,5.80
2022-10-11T16:42:32.078Z,5.57
2022-10-11T16:44:58.877Z,5.00
2022-10-11T16:47:25.515Z,5.80
2022-10-11T16:49:51.952Z,4.60
2022-10-11T16:52:18.652Z,4.67
2022-10-11T16:54:46.634Z,4.70
2022-10-11T16:57:15.169Z,5.20
2022-10-11T16:59:41.898Z,4.30
2022-10-11T17:02:14.975Z,34.03
2022-10-11T17:04:41.484Z,30.83
2022-10-11T17:07:13.023Z,25.33
2022-10-11T17:09:43.907Z,88.10
2022-10-11T17:12:13.193Z,61.47
2022-10-11T17:14:40.957Z,71.10
2022-10-11T17:17:08.487Z,56.53
2022-10-11T17:19:35.421Z,29.97
2022-10-11T17:22:01.863Z,26.30
2022-10-11T17:24:28.487Z,49.63
2022-10-11T17:26:54.985Z,36.53
2022-10-11T17:29:22.140Z,61.13
2022-10-11T17:31:49.462Z,13.83
2022-10-11T17:34:17.097Z,8.57
2022-10-11T17:36:43.997Z,8.80
2022-10-11T17:39:16.450Z,8.60
2022-10-11T17:41:44.108Z,7.80
2022-10-11T17:44:10.963Z,7.20
2022-10-11T17:46:37.803Z,7.47
2022-10-11T17:49:05.964Z,7.50
2022-10-11T17:51:33.932Z,7.57
2022-10-11T17:54:00.390Z,7.83
2022-10-11T17:56:31.338Z,8.57
2022-10-11T17:59:00.288Z,9.47
2022-10-11T18:01:28.950Z,11.20
2022-10-11T18:04:00.559Z,11.00
2022-10-11T18:06:29.807Z,10.70
2022-10-11T18:08:57.424Z,16.37
2022-10-11T18:11:24.007Z,16.80
2022-10-11T18:13:52.703Z,14.10
2022-10-11T18:16:21.799Z,11.27
2022-10-11T18:18:48.687Z,21.67
2022-10-11T18:21:16.192Z,8.90
2022-10-11T18:23:42.653Z,11.90
2022-10-11T18:26:17.214Z,8.80
2022-10-11T18:28:44.426Z,9.47
2022-10-11T18:31:16.644Z,11.87
2022-10-11T18:33:45.788Z,8.27
2022-10-11T18:36:15.383Z,13.33
2022-10-11T18:38:46.586Z,16.70
2022-10-11T18:41:15.491Z,12.47
2022-10-11T18:43:42.302Z,12.07
2022-10-11T18:46:11.569Z,13.23
2022-10-11T18:48:46.035Z,14.27
2022-10-11T18:51:15.826Z,14.20
2022-10-11T18:53:42.604Z,14.30
2022-10-11T18:56:11.506Z,18.43
2022-10-11T18:58:39.133Z,15.30
2022-10-11T19:01:12.759Z,16.33
2022-10-11T19:03:39.516Z,14.07
2022-10-11T19:06:16.921Z,18.53
2022-10-11T19:08:44.850Z,19.37
2022-10-11T19:11:12.939Z,17.20
2022-10-11T19:13:40.030Z,14.30
2022-10-11T19:16:16.904Z,13.37
2022-10-11T19:18:44.580Z,12.27
2022-10-11T19:21:12.970Z,12.17
2022-10-11T19:23:41.753Z,13.73
2022-10-11T19:26:33.466Z,16.10
2022-10-11T19:29:15.387Z,16.60
2022-10-11T19:31:44.078Z,14.13
2022-10-11T19:34:11.867Z,14.07
2022-10-11T19:36:38.796Z,13.30
2022-10-11T19:39:06.289Z,19.40
2022-10-11T19:41:35.929Z,15.37
2022-10-11T19:44:02.822Z,21.63
2022-10-11T19:46:50.529Z,16.90
2022-10-11T19:49:17.942Z,16.80
2022-10-11T19:51:45.038Z,14.80
2022-10-11T19:54:13.657Z,16.93
2022-10-11T19:56:40.577Z,46.47
2022-10-11T19:59:07.028Z,32.53
2022-10-11T20:01:34.896Z,24.70
2022-10-11T20:04:03.966Z,18.60
2022-10-11T20:06:37.900Z,16.47
2022-10-11T20:09:29.631Z,15.27
2022-10-11T20:11:55.860Z,13.10
2022-10-11T20:14:22.504Z,12.57
2022-10-11T20:16:52.411Z,10.90
2022-10-11T20:19:18.952Z,12.23
2022-10-11T20:21:45.556Z,10.60
2022-10-11T20:24:12.375Z,9.30
2022-10-11T20:26:39.303Z,10.10
2022-10-11T20:29:06.812Z,8.30
2022-10-11T20:31:34.915Z,8.40
2022-10-11T20:34:03.415Z,7.87
2022-10-11T20:36:32.058Z,11.30
2022-10-11T20:39:00.210Z,14.10
2022-10-11T20:41:29.375Z,14.50
2022-10-11T20:43:56.903Z,13.93
2022-10-11T20:46:25.451Z,14.87
2022-10-11T20:49:04.093Z,12.07
2022-10-11T20:51:31.983Z,13.13
2022-10-11T20:53:59.023Z,11.30
2022-10-11T20:56:25.739Z,9.53
2022-10-11T20:58:54.786Z,9.40
2022-10-11T21:01:24.092Z,11.40
2022-10-11T21:03:50.952Z,13.57
2022-10-11T21:06:17.758Z,11.00
2022-10-11T21:08:44.237Z,10.87
2022-10-11T21:11:11.636Z,12.30
2022-10-11T21:13:38.550Z,12.50
2022-10-11T21:16:06.892Z,12.43
2022-10-11T21:18:33.663Z,10.63
2022-10-11T21:21:07.747Z,10.90
2022-10-11T21:23:34.905Z,9.60
2022-10-11T21:26:06.476Z,10.30
2022-10-11T21:28:34.436Z,10.80
2022-10-11T21:31:09.445Z,9.37
2022-10-11T21:33:36.804Z,11.17
2022-10-11T21:36:07.721Z,11.53
2022-10-11T21:38:35.423Z,10.13
2022-10-11T21:41:03.385Z,10.30
2022-10-11T21:43:29.992Z,10.40
2022-10-11T21:45:56.462Z,11.27
2022-10-11T21:48:22.930Z,8.80
2022-10-11T21:50:53.833Z,9.40
2022-10-11T21:53:20.993Z,8.37
2022-10-11T21:55:47.535Z,9.47
2022-10-11T21:58:13.978Z,8.70
2022-10-11T22:00:40.600Z,9.30
2022-10-11T22:03:07.307Z,9.40
2022-10-11T22:05:33.920Z,10.20
2022-10-11T22:08:00.391Z,9.07
2022-10-11T22:10:27.004Z,9.63
2022-10-11T22:12:53.899Z,8.30
2022-10-11T22:15:20.384Z,8.90
2022-10-11T22:17:47.054Z,7.90
2022-10-11T22:20:13.580Z,9.43
2022-10-11T22:22:40.010Z,8.77
2022-10-11T22:25:06.864Z,8.30
2022-10-11T22:27:33.328Z,10.03
2022-10-11T22:29:59.857Z,8.70
2022-10-11T22:32:26.635Z,7.43
2022-10-11T22:34:53.165Z,6.83
2022-10-11T22:37:19.666Z,6.73
2022-10-11T22:39:46.313Z,8.07
2022-10-11T22:42:12.804Z,7.47
2022-10-11T22:44:39.348Z,6.80
2022-10-11T22:47:05.793Z,6.93
2022-10-11T22:49:32.289Z,7.10
2022-10-11T22:51:58.798Z,7.40
2022-10-11T22:54:25.586Z,8.53
2022-10-11T22:56:52.021Z,8.80
2022-10-11T22:59:18.582Z,9.07
2022-10-11T23:01:45.036Z,7.47
2022-10-11T23:04:11.547Z,8.07
2022-10-11T23:06:38.153Z,10.07
2022-10-11T23:09:04.581Z,9.03
2022-10-11T23:11:31.206Z,8.80
2022-10-11T23:13:57.676Z,7.03
2022-10-11T23:16:24.149Z,8.40
2022-10-11T23:18:53.216Z,7.00
2022-10-11T23:21:19.831Z,6.10
2022-10-11T23:23:46.358Z,6.33
2022-10-11T23:26:15.038Z,6.30
2022-10-11T23:28:42.561Z,6.10
2022-10-11T23:31:16.705Z,6.60
2022-10-11T23:33:46.507Z,7.53
2022-10-11T23:36:21.031Z,7.03
2022-10-11T23:38:55.157Z,7.00
2022-10-11T23:41:26.123Z,6.40
2022-10-11T23:43:52.770Z,5.87
2022-10-11T23:46:19.577Z,8.00
2022-10-11T23:48:46.033Z,7.93
2022-10-11T23:51:14.152Z,6.80
2022-10-11T23:53:40.723Z,8.13
2022-10-11T23:56:07.930Z,9.10
2022-10-11T23:58:34.596Z,7.70
